sensor_id;sensor_type;location;lat;lon;timestamp;pressure;altitude;pressure_sealevel;temperature;humidity
8573;BME280;4324;42.012;24.872;2024-02-21T00:01:28;99682.00;;;7.98;87.99
8573;BME280;4324;42.012;24.872;2024-02-21T00:03:55;99679.94;;;8.02;88.26
8573;BME280;4324;42.012;24.872;2024-02-21T00:06:22;99685.50;;;8.08;88.05
8573;BME280;4324;42.012;24.872;2024-02-21T00:08:49;99679.38;;;8.08;88.12
8573;BME280;4324;42.012;24.872;2024-02-21T00:11:17;99678.03;;;8.13;87.72
8573;BME280;4324;42.012;24.872;2024-02-21T00:13:44;99667.22;;;8.16;87.76
8573;BME280;4324;42.012;24.872;2024-02-21T00:16:11;99659.81;;;8.10;87.59
8573;BME280;4324;42.012;24.872;2024-02-21T00:18:39;99674.97;;;8.18;87.51
8573;BME280;4324;42.012;24.872;2024-02-21T00:21:05;99670.78;;;8.15;87.38
8573;BME280;4324;42.012;24.872;2024-02-21T00:23:32;99660.81;;;8.09;87.49
8573;BME280;4324;42.012;24.872;2024-02-21T00:25:59;99646.91;;;8.07;87.28
8573;BME280;4324;42.012;24.872;2024-02-21T00:28:27;99648.28;;;8.02;86.57
8573;BME280;4324;42.012;24.872;2024-02-21T00:30:54;99655.69;;;8.17;86.01
8573;BME280;4324;42.012;24.872;2024-02-21T00:33:21;99655.97;;;8.24;86.16
8573;BME280;4324;42.012;24.872;2024-02-21T00:35:48;99641.94;;;8.14;86.28
8573;BME280;4324;42.012;24.872;2024-02-21T00:38:15;99649.00;;;8.13;86.22
8573;BME280;4324;42.012;24.872;2024-02-21T00:40:42;99660.56;;;8.22;86.46
8573;BME280;4324;42.012;24.872;2024-02-21T00:43:09;99654.84;;;8.17;86.37
8573;BME280;4324;42.012;24.872;2024-02-21T00:45:38;99662.31;;;8.12;86.41
8573;BME280;4324;42.012;24.872;2024-02-21T00:48:05;99665.38;;;8.07;86.27
8573;BME280;4324;42.012;24.872;2024-02-21T00:50:32;99661.22;;;8.05;86.24
8573;BME280;4324;42.012;24.872;2024-02-21T00:52:59;99655.06;;;7.94;86.23
8573;BME280;4324;42.012;24.872;2024-02-21T00:55:26;99649.06;;;7.83;86.25
8573;BME280;4324;42.012;24.872;2024-02-21T00:57:53;99656.66;;;7.86;86.04
8573;BME280;4324;42.012;24.872;2024-02-21T01:00:20;99632.88;;;7.66;86.20
8573;BME280;4324;42.012;24.872;2024-02-21T01:02:48;99655.72;;;7.87;86.34
8573;BME280;4324;42.012;24.872;2024-02-21T01:05:15;99654.69;;;7.78;86.33
8573;BME280;4324;42.012;24.872;2024-02-21T01:07:42;99666.78;;;7.81;86.55
8573;BME280;4324;42.012;24.872;2024-02-21T01:10:09;99661.09;;;7.75;86.49
8573;BME280;4324;42.012;24.872;2024-02-21T01:12:36;99656.75;;;7.74;86.89
8573;BME280;4324;42.012;24.872;2024-02-21T01:15:04;99609.75;;;7.49;87.03
8573;BME280;4324;42.012;24.872;2024-02-21T01:17:31;99631.97;;;7.56;87.46
8573;BME280;4324;42.012;24.872;2024-02-21T01:20:00;99654.53;;;7.70;87.66
8573;BME280;4324;42.012;24.872;2024-02-21T01:22:27;99636.72;;;7.62;87.40
8573;BME280;4324;42.012;24.872;2024-02-21T01:24:54;99614.06;;;7.50;87.19
8573;BME280;4324;42.012;24.872;2024-02-21T01:27:21;99635.59;;;7.55;87.12
8573;BME280;4324;42.012;24.872;2024-02-21T01:29:47;99643.09;;;7.60;87.04
8573;BME280;4324;42.012;24.872;2024-02-21T01:32:15;99637.53;;;7.53;86.47
8573;BME280;4324;42.012;24.872;2024-02-21T01:34:42;99638.53;;;7.62;86.44
8573;BME280;4324;42.012;24.872;2024-02-21T01:37:10;99635.06;;;7.61;86.28
8573;BME280;4324;42.012;24.872;2024-02-21T01:39:37;99608.81;;;7.50;86.57
8573;BME280;4324;42.012;24.872;2024-02-21T01:42:04;99618.81;;;7.56;86.21
8573;BME280;4324;42.012;24.872;2024-02-21T01:44:31;99637.16;;;7.67;86.03
8573;BME280;4324;42.012;24.872;2024-02-21T01:46:58;99632.56;;;7.60;85.73
8573;BME280;4324;42.012;24.872;2024-02-21T01:49:25;99623.28;;;7.65;86.07
8573;BME280;4324;42.012;24.872;2024-02-21T01:51:53;99627.59;;;7.66;85.56
8573;BME280;4324;42.012;24.872;2024-02-21T01:54:22;99620.91;;;7.62;85.46
8573;BME280;4324;42.012;24.872;2024-02-21T01:56:49;99617.31;;;7.63;84.89
8573;BME280;4324;42.012;24.872;2024-02-21T01:59:18;99607.59;;;7.64;85.14
8573;BME280;4324;42.012;24.872;2024-02-21T02:01:46;99610.69;;;7.69;84.56
8573;BME280;4324;42.012;24.872;2024-02-21T02:04:13;99609.16;;;7.66;84.76
8573;BME280;4324;42.012;24.872;2024-02-21T02:06:40;99602.63;;;7.70;84.39
8573;BME280;4324;42.012;24.872;2024-02-21T02:09:07;99599.06;;;7.71;85.17
8573;BME280;4324;42.012;24.872;2024-02-21T02:11:36;99603.78;;;7.78;84.61
8573;BME280;4324;42.012;24.872;2024-02-21T02:14:03;99602.69;;;7.80;85.53
8573;BME280;4324;42.012;24.872;2024-02-21T02:16:30;99599.47;;;7.76;85.55
8573;BME280;4324;42.012;24.872;2024-02-21T02:18:57;99609.50;;;7.83;86.27
8573;BME280;4324;42.012;24.872;2024-02-21T02:21:28;99590.84;;;7.74;86.29
8573;BME280;4324;42.012;24.872;2024-02-21T02:23:57;99597.69;;;7.77;85.88
8573;BME280;4324;42.012;24.872;2024-02-21T02:26:24;99600.72;;;7.82;86.53
8573;BME280;4324;42.012;24.872;2024-02-21T02:28:51;99595.34;;;7.84;85.40
8573;BME280;4324;42.012;24.872;2024-02-21T02:31:17;99594.38;;;7.85;84.92
8573;BME280;4324;42.012;24.872;2024-02-21T02:33:44;99599.63;;;7.85;84.34
8573;BME280;4324;42.012;24.872;2024-02-21T02:36:11;99587.44;;;7.84;84.15
8573;BME280;4324;42.012;24.872;2024-02-21T02:38:38;99598.28;;;7.90;84.28
8573;BME280;4324;42.012;24.872;2024-02-21T02:41:06;99604.81;;;7.96;84.60
8573;BME280;4324;42.012;24.872;2024-02-21T02:43:33;99596.91;;;7.96;84.47
8573;BME280;4324;42.012;24.872;2024-02-21T02:46:02;99607.44;;;7.96;84.37
8573;BME280;4324;42.012;24.872;2024-02-21T02:48:29;99601.59;;;7.92;84.16
8573;BME280;4324;42.012;24.872;2024-02-21T02:50:56;99610.53;;;8.01;84.30
8573;BME280;4324;42.012;24.872;2024-02-21T02:53:26;99609.00;;;7.98;83.84
8573;BME280;4324;42.012;24.872;2024-02-21T02:55:53;99599.53;;;7.96;83.80
8573;BME280;4324;42.012;24.872;2024-02-21T02:58:21;99612.47;;;7.99;84.26
8573;BME280;4324;42.012;24.872;2024-02-21T03:00:48;99598.84;;;7.94;84.28
8573;BME280;4324;42.012;24.872;2024-02-21T03:03:15;99605.63;;;7.96;84.66
8573;BME280;4324;42.012;24.872;2024-02-21T03:05:42;99610.66;;;7.99;84.19
8573;BME280;4324;42.012;24.872;2024-02-21T03:08:09;99598.84;;;7.94;84.36
8573;BME280;4324;42.012;24.872;2024-02-21T03:10:36;99603.72;;;7.98;84.22
8573;BME280;4324;42.012;24.872;2024-02-21T03:13:03;99606.19;;;8.00;84.24
8573;BME280;4324;42.012;24.872;2024-02-21T03:15:32;99606.09;;;8.02;84.33
8573;BME280;4324;42.012;24.872;2024-02-21T03:17:59;99605.25;;;8.01;84.52
8573;BME280;4324;42.012;24.872;2024-02-21T03:20:26;99601.50;;;8.04;85.18
8573;BME280;4324;42.012;24.872;2024-02-21T03:22:53;99603.31;;;8.03;85.35
8573;BME280;4324;42.012;24.872;2024-02-21T03:25:43;99576.34;;;7.90;85.57
8573;BME280;4324;42.012;24.872;2024-02-21T03:31:16;99601.22;;;8.07;86.30
8573;BME280;4324;42.012;24.872;2024-02-21T03:33:43;99574.41;;;7.92;86.11
8573;BME280;4324;42.012;24.872;2024-02-21T03:36:13;99585.94;;;8.00;85.80
8573;BME280;4324;42.012;24.872;2024-02-21T03:38:40;99589.03;;;8.06;85.17
8573;BME280;4324;42.012;24.872;2024-02-21T03:41:07;99595.44;;;8.13;85.13
8573;BME280;4324;42.012;24.872;2024-02-21T03:43:34;99597.66;;;8.17;85.22
8573;BME280;4324;42.012;24.872;2024-02-21T03:46:01;99595.84;;;8.18;85.39
8573;BME280;4324;42.012;24.872;2024-02-21T03:48:29;99584.72;;;8.14;85.71
8573;BME280;4324;42.012;24.872;2024-02-21T03:50:56;99582.50;;;8.10;85.63
8573;BME280;4324;42.012;24.872;2024-02-21T03:53:22;99570.00;;;8.02;85.78
8573;BME280;4324;42.012;24.872;2024-02-21T03:55:51;99594.59;;;8.12;85.96
8573;BME280;4324;42.012;24.872;2024-02-21T03:58:40;99565.09;;;7.88;86.07
8573;BME280;4324;42.012;24.872;2024-02-21T04:01:16;99603.31;;;8.03;86.69
8573;BME280;4324;42.012;24.872;2024-02-21T04:03:44;99608.56;;;8.03;86.78
8573;BME280;4324;42.012;24.872;2024-02-21T04:06:11;99607.19;;;7.99;86.79
8573;BME280;4324;42.012;24.872;2024-02-21T04:08:39;99593.56;;;7.94;86.66
8573;BME280;4324;42.012;24.872;2024-02-21T04:11:05;99596.78;;;7.97;86.06
8573;BME280;4324;42.012;24.872;2024-02-21T04:13:32;99577.88;;;7.83;85.64
8573;BME280;4324;42.012;24.872;2024-02-21T04:15:59;99602.06;;;7.97;85.73
8573;BME280;4324;42.012;24.872;2024-02-21T04:18:26;99569.09;;;7.82;85.82
8573;BME280;4324;42.012;24.872;2024-02-21T04:20:55;99597.31;;;7.91;85.61
8573;BME280;4324;42.012;24.872;2024-02-21T04:23:22;99604.81;;;7.96;85.89
8573;BME280;4324;42.012;24.872;2024-02-21T04:25:48;99609.09;;;7.97;85.42
8573;BME280;4324;42.012;24.872;2024-02-21T04:28:15;99604.94;;;7.94;86.36
8573;BME280;4324;42.012;24.872;2024-02-21T04:30:42;99601.75;;;7.91;86.34
8573;BME280;4324;42.012;24.872;2024-02-21T04:33:09;99607.44;;;7.96;85.89
8573;BME280;4324;42.012;24.872;2024-02-21T04:35:36;99588.22;;;7.74;85.68
8573;BME280;4324;42.012;24.872;2024-02-21T04:38:05;99602.16;;;7.86;86.21
8573;BME280;4324;42.012;24.872;2024-02-21T04:40:32;99609.34;;;7.84;86.31
8573;BME280;4324;42.012;24.872;2024-02-21T04:42:59;99593.06;;;7.69;86.13
8573;BME280;4324;42.012;24.872;2024-02-21T04:45:26;99607.53;;;7.75;85.75
8573;BME280;4324;42.012;24.872;2024-02-21T04:47:53;99620.72;;;7.85;86.43
8573;BME280;4324;42.012;24.872;2024-02-21T04:50:20;99603.50;;;7.81;86.21
8573;BME280;4324;42.012;24.872;2024-02-21T04:52:47;99623.69;;;7.91;87.05
8573;BME280;4324;42.012;24.872;2024-02-21T04:55:15;99629.94;;;7.90;86.65
8573;BME280;4324;42.012;24.872;2024-02-21T04:57:42;99630.75;;;7.91;86.40
8573;BME280;4324;42.012;24.872;2024-02-21T05:00:10;99641.56;;;7.88;86.38
8573;BME280;4324;42.012;24.872;2024-02-21T05:02:37;99628.78;;;7.83;86.83
8573;BME280;4324;42.012;24.872;2024-02-21T05:05:04;99619.84;;;7.74;86.58
8573;BME280;4324;42.012;24.872;2024-02-21T05:07:31;99638.78;;;7.89;86.63
8573;BME280;4324;42.012;24.872;2024-02-21T05:09:58;99652.69;;;7.91;86.62
8573;BME280;4324;42.012;24.872;2024-02-21T05:12:27;99654.34;;;7.92;86.55
8573;BME280;4324;42.012;24.872;2024-02-21T05:14:55;99657.97;;;7.91;86.19
8573;BME280;4324;42.012;24.872;2024-02-21T05:17:34;99655.47;;;7.90;85.69
8573;BME280;4324;42.012;24.872;2024-02-21T05:20:15;99653.50;;;7.92;85.47
8573;BME280;4324;42.012;24.872;2024-02-21T05:23:03;99656.16;;;7.92;85.88
8573;BME280;4324;42.012;24.872;2024-02-21T05:25:33;99665.47;;;7.96;86.14
8573;BME280;4324;42.012;24.872;2024-02-21T05:28:02;99662.97;;;7.94;86.10
8573;BME280;4324;42.012;24.872;2024-02-21T05:30:31;99579.25;;;7.46;85.87
8573;BME280;4324;42.012;24.872;2024-02-21T05:32:58;99654.59;;;7.89;87.06
8573;BME280;4324;42.012;24.872;2024-02-21T05:35:26;99666.03;;;7.99;86.25
8573;BME280;4324;42.012;24.872;2024-02-21T05:37:54;99661.16;;;7.95;86.21
8573;BME280;4324;42.012;24.872;2024-02-21T05:40:21;99646.00;;;7.87;86.44
8573;BME280;4324;42.012;24.872;2024-02-21T05:42:48;99670.31;;;8.00;86.12
8573;BME280;4324;42.012;24.872;2024-02-21T05:45:18;99646.44;;;7.92;86.25
8573;BME280;4324;42.012;24.872;2024-02-21T05:47:46;99630.84;;;7.80;86.54
8573;BME280;4324;42.012;24.872;2024-02-21T05:50:16;99668.16;;;8.06;86.13
8573;BME280;4324;42.012;24.872;2024-02-21T05:52:44;99670.38;;;8.10;85.92
8573;BME280;4324;42.012;24.872;2024-02-21T05:55:11;99675.25;;;8.15;85.90
8573;BME280;4324;42.012;24.872;2024-02-21T05:57:38;99677.50;;;8.19;86.56
8573;BME280;4324;42.012;24.872;2024-02-21T06:00:06;99672.66;;;8.24;86.82
8573;BME280;4324;42.012;24.872;2024-02-21T06:02:34;99598.50;;;7.78;86.56
8573;BME280;4324;42.012;24.872;2024-02-21T06:05:01;99674.31;;;8.25;86.25
8573;BME280;4324;42.012;24.872;2024-02-21T06:07:28;99680.31;;;8.28;86.08
8573;BME280;4324;42.012;24.872;2024-02-21T06:09:55;99682.78;;;8.29;85.86
8573;BME280;4324;42.012;24.872;2024-02-21T06:12:22;99681.81;;;8.30;86.21
8573;BME280;4324;42.012;24.872;2024-02-21T06:14:51;99688.13;;;8.39;86.19
8573;BME280;4324;42.012;24.872;2024-02-21T06:17:18;99673.97;;;8.40;86.17
8573;BME280;4324;42.012;24.872;2024-02-21T06:19:47;99696.78;;;8.51;85.71
8573;BME280;4324;42.012;24.872;2024-02-21T06:22:17;99697.06;;;8.57;85.47
8573;BME280;4324;42.012;24.872;2024-02-21T06:24:48;99695.09;;;8.59;84.81
8573;BME280;4324;42.012;24.872;2024-02-21T06:27:15;99685.13;;;8.63;85.04
8573;BME280;4324;42.012;24.872;2024-02-21T06:29:42;99698.06;;;8.76;85.03
8573;BME280;4324;42.012;24.872;2024-02-21T06:32:09;99706.53;;;8.89;85.42
8573;BME280;4324;42.012;24.872;2024-02-21T06:34:37;99695.72;;;8.92;85.40
8573;BME280;4324;42.012;24.872;2024-02-21T06:37:05;99698.06;;;9.05;85.21
8573;BME280;4324;42.012;24.872;2024-02-21T06:39:32;99699.31;;;9.10;85.10
8573;BME280;4324;42.012;24.872;2024-02-21T06:41:59;99677.34;;;9.10;85.10
8573;BME280;4324;42.012;24.872;2024-02-21T06:44:26;99701.28;;;9.28;84.71
8573;BME280;4324;42.012;24.872;2024-02-21T06:46:54;99702.63;;;9.41;84.37
8573;BME280;4324;42.012;24.872;2024-02-21T06:49:35;99699.28;;;9.49;84.06
8573;BME280;4324;42.012;24.872;2024-02-21T06:52:18;99696.50;;;9.60;84.39
8573;BME280;4324;42.012;24.872;2024-02-21T06:54:46;99694.25;;;9.56;84.02
8573;BME280;4324;42.012;24.872;2024-02-21T06:57:13;99702.56;;;9.70;84.38
8573;BME280;4324;42.012;24.872;2024-02-21T06:59:41;99710.94;;;9.76;84.64
8573;BME280;4324;42.012;24.872;2024-02-21T07:02:14;99698.38;;;9.78;84.72
8573;BME280;4324;42.012;24.872;2024-02-21T07:04:45;99697.13;;;9.82;84.36
8573;BME280;4324;42.012;24.872;2024-02-21T07:07:14;99693.91;;;9.88;84.39
8573;BME280;4324;42.012;24.872;2024-02-21T07:09:43;99696.53;;;9.98;83.50
8573;BME280;4324;42.012;24.872;2024-02-21T07:12:10;99692.69;;;10.10;83.13
8573;BME280;4324;42.012;24.872;2024-02-21T07:14:37;99675.00;;;10.10;83.15
8573;BME280;4324;42.012;24.872;2024-02-21T07:17:04;99688.16;;;10.30;82.99
8573;BME280;4324;42.012;24.872;2024-02-21T07:19:31;99702.03;;;10.41;83.09
8573;BME280;4324;42.012;24.872;2024-02-21T07:21:58;99694.78;;;10.44;83.09
8573;BME280;4324;42.012;24.872;2024-02-21T07:24:25;99687.31;;;10.39;82.51
8573;BME280;4324;42.012;24.872;2024-02-21T07:26:57;99691.16;;;10.45;82.60
8573;BME280;4324;42.012;24.872;2024-02-21T07:29:31;99700.34;;;10.50;82.51
8573;BME280;4324;42.012;24.872;2024-02-21T07:31:58;99687.38;;;10.47;81.72
8573;BME280;4324;42.012;24.872;2024-02-21T07:34:25;99691.13;;;10.54;81.46
8573;BME280;4324;42.012;24.872;2024-02-21T07:36:52;99682.88;;;10.57;81.40
8573;BME280;4324;42.012;24.872;2024-02-21T07:39:19;99636.19;;;10.38;81.25
8573;BME280;4324;42.012;24.872;2024-02-21T07:41:46;99699.06;;;10.90;81.35
8573;BME280;4324;42.012;24.872;2024-02-21T07:44:15;99711.28;;;11.01;80.66
8573;BME280;4324;42.012;24.872;2024-02-21T07:46:42;99704.84;;;11.03;80.47
8573;BME280;4324;42.012;24.872;2024-02-21T07:49:11;99706.91;;;11.09;80.41
8573;BME280;4324;42.012;24.872;2024-02-21T07:51:45;99711.44;;;11.17;79.95
8573;BME280;4324;42.012;24.872;2024-02-21T07:54:15;99712.31;;;11.26;79.19
8573;BME280;4324;42.012;24.872;2024-02-21T07:56:42;99699.25;;;11.24;79.09
8573;BME280;4324;42.012;24.872;2024-02-21T07:59:09;99702.94;;;11.31;79.05
8573;BME280;4324;42.012;24.872;2024-02-21T08:01:37;99706.19;;;11.43;78.75
8573;BME280;4324;42.012;24.872;2024-02-21T08:04:11;99709.41;;;11.55;78.92
8573;BME280;4324;42.012;24.872;2024-02-21T08:06:51;99706.44;;;11.58;78.96
8573;BME280;4324;42.012;24.872;2024-02-21T08:09:19;99709.97;;;11.67;78.96
8573;BME280;4324;42.012;24.872;2024-02-21T08:11:55;99729.66;;;11.82;78.71
8573;BME280;4324;42.012;24.872;2024-02-21T08:14:36;99724.09;;;11.93;78.35
8573;BME280;4324;42.012;24.872;2024-02-21T08:17:14;99723.84;;;12.04;78.19
8573;BME280;4324;42.012;24.872;2024-02-21T08:19:43;99727.22;;;12.15;78.16
8573;BME280;4324;42.012;24.872;2024-02-21T08:22:15;99723.63;;;12.24;78.29
8573;BME280;4324;42.012;24.872;2024-02-21T08:24:42;99696.34;;;12.14;78.30
8573;BME280;4324;42.012;24.872;2024-02-21T08:27:14;99719.50;;;12.38;78.04
8573;BME280;4324;42.012;24.872;2024-02-21T08:29:50;99723.38;;;12.43;78.21
8573;BME280;4324;42.012;24.872;2024-02-21T08:32:43;99721.88;;;12.49;78.08
8573;BME280;4324;42.012;24.872;2024-02-21T08:35:21;99720.75;;;12.59;77.97
8573;BME280;4324;42.012;24.872;2024-02-21T08:38:00;99723.78;;;12.65;78.21
8573;BME280;4324;42.012;24.872;2024-02-21T08:40:27;99717.16;;;12.69;78.24
8573;BME280;4324;42.012;24.872;2024-02-21T08:43:00;99662.41;;;12.42;77.76
8573;BME280;4324;42.012;24.872;2024-02-21T08:45:30;99714.50;;;12.77;78.14
8573;BME280;4324;42.012;24.872;2024-02-21T08:47:59;99675.41;;;12.53;78.05
8573;BME280;4324;42.012;24.872;2024-02-21T08:50:26;99724.19;;;12.94;77.75
8573;BME280;4324;42.012;24.872;2024-02-21T08:52:53;99711.88;;;12.93;77.42
8573;BME280;4324;42.012;24.872;2024-02-21T08:55:20;99725.84;;;13.03;77.44
8573;BME280;4324;42.012;24.872;2024-02-21T08:57:50;99718.56;;;13.05;77.24
8573;BME280;4324;42.012;24.872;2024-02-21T09:00:17;99720.53;;;13.12;77.30
8573;BME280;4324;42.012;24.872;2024-02-21T09:02:49;99701.59;;;13.06;76.75
8573;BME280;4324;42.012;24.872;2024-02-21T09:05:17;99710.91;;;13.19;76.91
8573;BME280;4324;42.012;24.872;2024-02-21T09:07:45;99684.81;;;13.06;76.12
8573;BME280;4324;42.012;24.872;2024-02-21T09:10:15;99726.56;;;13.30;75.78
8573;BME280;4324;42.012;24.872;2024-02-21T09:12:41;99715.91;;;13.30;75.91
8573;BME280;4324;42.012;24.872;2024-02-21T09:15:10;99709.59;;;13.31;75.92
8573;BME280;4324;42.012;24.872;2024-02-21T09:17:37;99702.78;;;13.37;75.98
8573;BME280;4324;42.012;24.872;2024-02-21T09:20:06;99714.28;;;13.53;75.60
8573;BME280;4324;42.012;24.872;2024-02-21T09:22:34;99717.56;;;13.64;75.29
8573;BME280;4324;42.012;24.872;2024-02-21T09:25:03;99710.25;;;13.74;74.95
8573;BME280;4324;42.012;24.872;2024-02-21T09:27:30;99709.88;;;13.85;74.28
8573;BME280;4324;42.012;24.872;2024-02-21T09:29:57;99713.84;;;13.97;73.87
8573;BME280;4324;42.012;24.872;2024-02-21T09:32:24;99704.88;;;13.98;73.78
8573;BME280;4324;42.012;24.872;2024-02-21T09:34:52;99708.31;;;14.07;74.07
8573;BME280;4324;42.012;24.872;2024-02-21T09:37:19;99719.47;;;14.11;73.99
8573;BME280;4324;42.012;24.872;2024-02-21T09:39:48;99709.50;;;14.04;73.89
8573;BME280;4324;42.012;24.872;2024-02-21T09:42:20;99686.56;;;13.95;73.56
8573;BME280;4324;42.012;24.872;2024-02-21T09:44:47;99713.50;;;14.00;73.04
8573;BME280;4324;42.012;24.872;2024-02-21T09:47:19;99710.88;;;13.92;72.44
8573;BME280;4324;42.012;24.872;2024-02-21T09:49:58;99697.94;;;13.73;72.70
8573;BME280;4324;42.012;24.872;2024-02-21T09:52:35;99696.94;;;13.49;70.87
8573;BME280;4324;42.012;24.872;2024-02-21T09:55:08;99699.63;;;13.25;69.38
8573;BME280;4324;42.012;24.872;2024-02-21T09:57:38;99692.59;;;12.99;69.34
8573;BME280;4324;42.012;24.872;2024-02-21T10:00:13;99697.25;;;12.89;66.58
8573;BME280;4324;42.012;24.872;2024-02-21T10:02:50;99681.09;;;12.66;67.27
8573;BME280;4324;42.012;24.872;2024-02-21T10:05:17;99694.19;;;12.68;67.23
8573;BME280;4324;42.012;24.872;2024-02-21T10:07:59;99692.53;;;12.67;67.48
8573;BME280;4324;42.012;24.872;2024-02-21T10:10:59;99692.22;;;12.62;67.96
8573;BME280;4324;42.012;24.872;2024-02-21T10:13:43;99667.09;;;12.48;68.23
8573;BME280;4324;42.012;24.872;2024-02-21T10:16:18;99666.28;;;12.47;68.68
8573;BME280;4324;42.012;24.872;2024-02-21T10:19:19;99675.28;;;12.63;69.12
8573;BME280;4324;42.012;24.872;2024-02-21T10:22:08;99666.91;;;12.49;68.40
8573;BME280;4324;42.012;24.872;2024-02-21T10:25:18;99653.31;;;12.44;69.04
8573;BME280;4324;42.012;24.872;2024-02-21T10:27:48;99637.00;;;12.31;69.53
8573;BME280;4324;42.012;24.872;2024-02-21T10:30:16;99657.63;;;12.45;69.69
8573;BME280;4324;42.012;24.872;2024-02-21T10:32:53;99641.00;;;12.35;69.94
8573;BME280;4324;42.012;24.872;2024-02-21T10:35:27;99646.97;;;12.37;68.76
8573;BME280;4324;42.012;24.872;2024-02-21T10:37:59;99642.84;;;12.43;69.60
8573;BME280;4324;42.012;24.872;2024-02-21T10:40:28;99632.38;;;12.41;68.46
8573;BME280;4324;42.012;24.872;2024-02-21T10:42:58;99615.78;;;12.39;67.82
8573;BME280;4324;42.012;24.872;2024-02-21T10:45:30;99620.94;;;12.49;66.82
8573;BME280;4324;42.012;24.872;2024-02-21T10:48:03;99594.22;;;12.42;66.58
8573;BME280;4324;42.012;24.872;2024-02-21T10:50:36;99617.16;;;12.68;66.03
8573;BME280;4324;42.012;24.872;2024-02-21T10:53:21;99604.22;;;12.73;65.38
8573;BME280;4324;42.012;24.872;2024-02-21T10:56:08;99603.06;;;12.83;64.68
8573;BME280;4324;42.012;24.872;2024-02-21T10:59:09;99595.56;;;12.79;63.70
8573;BME280;4324;42.012;24.872;2024-02-21T11:01:37;99602.56;;;12.80;63.16
8573;BME280;4324;42.012;24.872;2024-02-21T11:04:05;99593.91;;;12.78;63.01
8573;BME280;4324;42.012;24.872;2024-02-21T11:09:51;99577.66;;;12.73;63.54
8573;BME280;4324;42.012;24.872;2024-02-21T11:12:28;99586.28;;;12.83;64.25
8573;BME280;4324;42.012;24.872;2024-02-21T11:15:05;99585.94;;;12.86;64.13
8573;BME280;4324;42.012;24.872;2024-02-21T11:17:32;99575.31;;;12.86;62.60
8573;BME280;4324;42.012;24.872;2024-02-21T11:20:10;99582.78;;;12.99;64.37
8573;BME280;4324;42.012;24.872;2024-02-21T11:22:42;99580.94;;;13.07;62.42
8573;BME280;4324;42.012;24.872;2024-02-21T11:25:09;99584.09;;;13.11;61.60
8573;BME280;4324;42.012;24.872;2024-02-21T11:27:37;99573.97;;;13.15;61.38
8573;BME280;4324;42.012;24.872;2024-02-21T11:30:07;99558.34;;;13.12;61.44
8573;BME280;4324;42.012;24.872;2024-02-21T11:32:40;99565.47;;;13.19;61.84
8573;BME280;4324;42.012;24.872;2024-02-21T11:35:08;99565.66;;;13.26;63.77
8573;BME280;4324;42.012;24.872;2024-02-21T11:37:36;99561.16;;;13.26;64.29
8573;BME280;4324;42.012;24.872;2024-02-21T11:40:04;99563.16;;;13.32;65.50
8573;BME280;4324;42.012;24.872;2024-02-21T11:42:35;99562.16;;;13.34;64.28
8573;BME280;4324;42.012;24.872;2024-02-21T11:45:07;99556.69;;;13.35;63.86
8573;BME280;4324;42.012;24.872;2024-02-21T11:47:35;99540.53;;;13.37;66.93
8573;BME280;4324;42.012;24.872;2024-02-21T11:50:05;99551.09;;;13.53;67.14
8573;BME280;4324;42.012;24.872;2024-02-21T11:52:32;99538.34;;;13.48;66.70
8573;BME280;4324;42.012;24.872;2024-02-21T11:54:59;99546.28;;;13.56;64.86
8573;BME280;4324;42.012;24.872;2024-02-21T11:57:37;99538.13;;;13.58;65.83
8573;BME280;4324;42.012;24.872;2024-02-21T12:00:18;99547.25;;;13.64;64.92
8573;BME280;4324;42.012;24.872;2024-02-21T12:02:47;99543.00;;;13.46;63.41
8573;BME280;4324;42.012;24.872;2024-02-21T12:05:14;99518.09;;;13.23;62.63
8573;BME280;4324;42.012;24.872;2024-02-21T12:07:41;99533.75;;;13.26;61.09
8573;BME280;4324;42.012;24.872;2024-02-21T12:10:09;99536.06;;;13.21;61.58
8573;BME280;4324;42.012;24.872;2024-02-21T12:12:36;99540.38;;;13.22;65.60
8573;BME280;4324;42.012;24.872;2024-02-21T12:15:05;99507.84;;;13.03;66.15
8573;BME280;4324;42.012;24.872;2024-02-21T12:17:36;99524.28;;;13.07;65.66
8573;BME280;4324;42.012;24.872;2024-02-21T12:23:27;99517.63;;;13.11;65.03
8573;BME280;4324;42.012;24.872;2024-02-21T12:25:54;99510.13;;;13.15;63.85
8573;BME280;4324;42.012;24.872;2024-02-21T12:28:21;99509.47;;;13.29;62.17
8573;BME280;4324;42.012;24.872;2024-02-21T12:30:48;99510.72;;;13.49;61.83
8573;BME280;4324;42.012;24.872;2024-02-21T12:33:16;99485.47;;;13.45;61.57
8573;BME280;4324;42.012;24.872;2024-02-21T12:35:43;99508.34;;;13.63;61.67
8573;BME280;4324;42.012;24.872;2024-02-21T12:38:10;99490.09;;;13.51;62.63
8573;BME280;4324;42.012;24.872;2024-02-21T12:40:39;99503.22;;;13.53;61.99
8573;BME280;4324;42.012;24.872;2024-02-21T12:43:06;99494.94;;;13.48;61.70
8573;BME280;4324;42.012;24.872;2024-02-21T12:45:33;99487.53;;;13.35;60.49
8573;BME280;4324;42.012;24.872;2024-02-21T12:48:00;99488.97;;;13.38;59.43
8573;BME280;4324;42.012;24.872;2024-02-21T12:50:29;99468.75;;;13.28;58.86
8573;BME280;4324;42.012;24.872;2024-02-21T12:52:56;99478.84;;;13.41;58.15
8573;BME280;4324;42.012;24.872;2024-02-21T12:55:24;99481.53;;;13.33;58.38
8573;BME280;4324;42.012;24.872;2024-02-21T12:57:52;99488.84;;;13.31;58.49
8573;BME280;4324;42.012;24.872;2024-02-21T13:00:19;99483.38;;;13.16;58.61
8573;BME280;4324;42.012;24.872;2024-02-21T13:02:46;99480.25;;;13.13;58.75
8573;BME280;4324;42.012;24.872;2024-02-21T13:05:13;99478.91;;;13.08;58.96
8573;BME280;4324;42.012;24.872;2024-02-21T13:07:41;99483.22;;;13.18;59.26
8573;BME280;4324;42.012;24.872;2024-02-21T13:10:08;99470.75;;;13.26;59.03
8573;BME280;4324;42.012;24.872;2024-02-21T13:12:35;99467.69;;;13.38;58.83
8573;BME280;4324;42.012;24.872;2024-02-21T13:15:05;99456.09;;;13.39;58.86
8573;BME280;4324;42.012;24.872;2024-02-21T13:17:32;99458.84;;;13.45;58.76
8573;BME280;4324;42.012;24.872;2024-02-21T13:19:59;99461.84;;;13.50;58.94
8573;BME280;4324;42.012;24.872;2024-02-21T13:22:26;99461.50;;;13.53;59.20
8573;BME280;4324;42.012;24.872;2024-02-21T13:24:54;99445.16;;;13.56;58.88
8573;BME280;4324;42.012;24.872;2024-02-21T13:27:21;99431.91;;;13.48;59.34
8573;BME280;4324;42.012;24.872;2024-02-21T13:29:48;99443.59;;;13.70;58.75
8573;BME280;4324;42.012;24.872;2024-02-21T13:32:15;99446.06;;;13.80;58.77
8573;BME280;4324;42.012;24.872;2024-02-21T13:34:42;99449.66;;;13.87;58.38
8573;BME280;4324;42.012;24.872;2024-02-21T13:37:09;99442.50;;;13.88;58.12
8573;BME280;4324;42.012;24.872;2024-02-21T13:39:36;99435.88;;;13.84;58.04